createdAt,value
2022-11-13T05:05:39.943Z,14.00
2022-11-13T05:21:03.229Z,14.30
2022-11-13T05:36:26.107Z,14.10
2022-11-13T05:51:49.218Z,14.20
2022-11-13T06:07:12.416Z,14.10
2022-11-13T06:22:35.470Z,14.20
2022-11-13T06:37:58.219Z,14.10
2022-11-13T06:53:21.117Z,14.00
2022-11-13T07:08:44.866Z,14.30
2022-11-13T07:24:11.529Z,14.30
2022-11-13T07:39:38.508Z,14.20
2022-11-13T07:55:01.561Z,14.20
2022-11-13T08:10:24.509Z,14.40
2022-11-13T08:25:47.562Z,14.30
2022-11-13T08:41:10.405Z,14.70
2022-11-13T08:56:33.989Z,15.00
2022-11-13T09:11:56.996Z,15.10
2022-11-13T09:27:20.179Z,15.50
2022-11-13T09:42:43.293Z,15.80
2022-11-13T09:58:13.645Z,16.10
2022-11-13T10:13:43.870Z,16.40
2022-11-13T10:29:13.689Z,16.80
2022-11-13T10:44:36.837Z,17.10
2022-11-13T10:59:59.717Z,17.40
2022-11-13T11:15:33.772Z,17.60
2022-11-13T11:31:02.248Z,17.90
2022-11-13T11:46:26.112Z,18.00
2022-11-13T12:02:10.000Z,18.00
2022-11-13T12:17:50.065Z,17.70
2022-11-13T12:33:28.474Z,17.60
2022-11-13T12:48:51.661Z,17.60
2022-11-13T13:04:42.946Z,17.60
2022-11-13T13:20:27.932Z,17.60
2022-11-13T13:36:13.835Z,17.60
2022-11-13T13:51:43.519Z,17.70
2022-11-13T14:07:19.673Z,17.70
2022-11-13T14:22:45.299Z,17.80
2022-11-13T14:38:20.708Z,17.80
2022-11-13T14:53:43.834Z,17.70
2022-11-13T15:09:12.076Z,17.70
2022-11-13T15:24:35.147Z,17.70
2022-11-13T15:39:58.530Z,17.50
2022-11-13T15:55:27.478Z,17.40
2022-11-13T16:10:50.199Z,17.30
2022-11-13T16:26:15.702Z,17.20
2022-11-13T16:41:38.854Z,17.10
2022-11-13T16:57:01.791Z,17.00
2022-11-13T17:12:24.855Z,16.90
2022-11-13T17:27:47.869Z,16.80
2022-11-13T17:43:10.974Z,16.70
2022-11-13T17:58:38.239Z,16.50
2022-11-13T18:14:01.312Z,16.40
2022-11-13T18:29:23.987Z,16.20
2022-11-13T18:44:47.307Z,16.20
2022-11-13T19:00:11.729Z,15.90
2022-11-13T19:15:36.925Z,15.50
2022-11-13T19:30:59.801Z,15.50
2022-11-13T19:46:23.025Z,15.60
2022-11-13T20:01:46.099Z,15.70
2022-11-13T20:17:08.913Z,15.50
2022-11-13T20:32:32.041Z,15.10
2022-11-13T20:47:55.015Z,15.20
2022-11-13T21:03:17.900Z,15.30
